sensor_id;sensor_type;location;lat;lon;timestamp;P1;durP1;ratioP1;P2;durP2;ratioP2
38725;SDS011;24474;48.906;8.808;2022-09-27T00:02:02;1.08;;;0.40;;
38725;SDS011;24474;48.906;8.808;2022-09-27T00:04:28;2.60;;;0.30;;
38725;SDS011;24474;48.906;8.808;2022-09-27T00:06:54;1.10;;;0.40;;
38725;SDS011;24474;48.906;8.808;2022-09-27T00:09:19;0.70;;;0.32;;
38725;SDS011;24474;48.906;8.808;2022-09-27T00:11:45;0.32;;;0.32;;
38725;SDS011;24474;48.906;8.808;2022-09-27T00:14:12;0.63;;;0.40;;
38725;SDS011;24474;48.906;8.808;2022-09-27T00:16:39;0.55;;;0.40;;
38725;SDS011;24474;48.906;8.808;2022-09-27T00:19:07;2.50;;;0.50;;
38725;SDS011;24474;48.906;8.808;2022-09-27T00:21:37;1.58;;;0.50;;
38725;SDS011;24474;48.906;8.808;2022-09-27T00:24:05;1.85;;;0.55;;
38725;SDS011;24474;48.906;8.808;2022-09-27T00:26:31;2.05;;;0.70;;
38725;SDS011;24474;48.906;8.808;2022-09-27T00:28:57;0.60;;;0.30;;
38725;SDS011;24474;48.906;8.808;2022-09-27T00:31:24;0.85;;;0.40;;
38725;SDS011;24474;48.906;8.808;2022-09-27T00:33:53;0.88;;;0.40;;
38725;SDS011;24474;48.906;8.808;2022-09-27T00:36:20;2.42;;;0.50;;
38725;SDS011;24474;48.906;8.808;2022-09-27T00:38:47;3.30;;;0.40;;
38725;SDS011;24474;48.906;8.808;2022-09-27T00:50:08;2.80;;;0.40;;
38725;SDS011;24474;48.906;8.808;2022-09-27T00:53:22;0.98;;;0.45;;
38725;SDS011;24474;48.906;8.808;2022-09-27T00:55:32;3.05;;;0.45;;
38725;SDS011;24474;48.906;8.808;2022-09-27T00:58:02;2.10;;;0.50;;
38725;SDS011;24474;48.906;8.808;2022-09-27T01:00:30;0.45;;;0.30;;
38725;SDS011;24474;48.906;8.808;2022-09-27T01:02:56;3.38;;;0.52;;
38725;SDS011;24474;48.906;8.808;2022-09-27T01:05:23;0.55;;;0.30;;
38725;SDS011;24474;48.906;8.808;2022-09-27T01:07:52;0.30;;;0.30;;
38725;SDS011;24474;48.906;8.808;2022-09-27T01:10:20;0.88;;;0.40;;
38725;SDS011;24474;48.906;8.808;2022-09-27T01:12:55;0.40;;;0.30;;
38725;SDS011;24474;48.906;8.808;2022-09-27T01:31:55;2.55;;;0.68;;
38725;SDS011;24474;48.906;8.808;2022-09-27T01:34:30;2.50;;;0.65;;
38725;SDS011;24474;48.906;8.808;2022-09-27T01:37:25;3.08;;;0.80;;
38725;SDS011;24474;48.906;8.808;2022-09-27T01:40:01;1.90;;;0.70;;
38725;SDS011;24474;48.906;8.808;2022-09-27T01:42:48;1.35;;;0.73;;
38725;SDS011;24474;48.906;8.808;2022-09-27T01:46:11;3.78;;;0.90;;
38725;SDS011;24474;48.906;8.808;2022-09-27T01:48:27;2.72;;;0.82;;
38725;SDS011;24474;48.906;8.808;2022-09-27T01:51:08;3.97;;;0.80;;
38725;SDS011;24474;48.906;8.808;2022-09-27T01:53:40;1.65;;;0.90;;
38725;SDS011;24474;48.906;8.808;2022-09-27T01:56:10;2.65;;;0.90;;
38725;SDS011;24474;48.906;8.808;2022-09-27T02:01:10;2.42;;;0.73;;
38725;SDS011;24474;48.906;8.808;2022-09-27T02:03:41;1.35;;;0.60;;
38725;SDS011;24474;48.906;8.808;2022-09-27T02:06:16;2.30;;;0.75;;
38725;SDS011;24474;48.906;8.808;2022-09-27T02:08:48;2.10;;;0.80;;
38725;SDS011;24474;48.906;8.808;2022-09-27T02:11:18;3.00;;;0.98;;
38725;SDS011;24474;48.906;8.808;2022-09-27T02:13:47;3.40;;;0.90;;
38725;SDS011;24474;48.906;8.808;2022-09-27T02:21:24;3.95;;;1.10;;
38725;SDS011;24474;48.906;8.808;2022-09-27T02:24:01;2.15;;;0.90;;
38725;SDS011;24474;48.906;8.808;2022-09-27T02:26:32;3.80;;;1.20;;
38725;SDS011;24474;48.906;8.808;2022-09-27T02:29:09;4.45;;;1.05;;
38725;SDS011;24474;48.906;8.808;2022-09-27T02:31:56;2.25;;;1.10;;
38725;SDS011;24474;48.906;8.808;2022-09-27T02:34:22;3.85;;;1.20;;
38725;SDS011;24474;48.906;8.808;2022-09-27T02:36:50;5.55;;;1.50;;
38725;SDS011;24474;48.906;8.808;2022-09-27T02:39:18;3.42;;;1.15;;
38725;SDS011;24474;48.906;8.808;2022-09-27T02:41:44;5.53;;;1.55;;
38725;SDS011;24474;48.906;8.808;2022-09-27T02:44:10;3.60;;;1.30;;
38725;SDS011;24474;48.906;8.808;2022-09-27T02:46:52;7.22;;;1.70;;
38725;SDS011;24474;48.906;8.808;2022-09-27T03:00:29;7.10;;;1.98;;
38725;SDS011;24474;48.906;8.808;2022-09-27T03:03:17;5.50;;;2.10;;
38725;SDS011;24474;48.906;8.808;2022-09-27T03:05:59;4.00;;;1.70;;
38725;SDS011;24474;48.906;8.808;2022-09-27T03:08:28;4.18;;;1.88;;
38725;SDS011;24474;48.906;8.808;2022-09-27T03:10:55;7.38;;;2.13;;
38725;SDS011;24474;48.906;8.808;2022-09-27T03:13:21;5.50;;;2.13;;
38725;SDS011;24474;48.906;8.808;2022-09-27T03:15:46;7.03;;;2.20;;
38725;SDS011;24474;48.906;8.808;2022-09-27T03:18:12;8.43;;;2.90;;
38725;SDS011;24474;48.906;8.808;2022-09-27T03:20:37;8.88;;;2.70;;
38725;SDS011;24474;48.906;8.808;2022-09-27T03:23:03;9.50;;;2.63;;
38725;SDS011;24474;48.906;8.808;2022-09-27T03:25:29;9.48;;;3.05;;
38725;SDS011;24474;48.906;8.808;2022-09-27T03:27:54;8.13;;;3.00;;
38725;SDS011;24474;48.906;8.808;2022-09-27T03:30:20;7.25;;;2.78;;
38725;SDS011;24474;48.906;8.808;2022-09-27T03:32:46;10.93;;;3.33;;
38725;SDS011;24474;48.906;8.808;2022-09-27T03:35:11;10.88;;;3.10;;
38725;SDS011;24474;48.906;8.808;2022-09-27T03:37:38;8.90;;;3.10;;
38725;SDS011;24474;48.906;8.808;2022-09-27T03:40:05;5.97;;;2.80;;
38725;SDS011;24474;48.906;8.808;2022-09-27T03:42:32;10.73;;;2.75;;
38725;SDS011;24474;48.906;8.808;2022-09-27T03:44:57;8.60;;;2.97;;
38725;SDS011;24474;48.906;8.808;2022-09-27T03:47:23;9.90;;;2.75;;
38725;SDS011;24474;48.906;8.808;2022-09-27T03:49:52;10.55;;;3.17;;
38725;SDS011;24474;48.906;8.808;2022-09-27T03:52:20;9.98;;;2.80;;
38725;SDS011;24474;48.906;8.808;2022-09-27T03:54:46;7.65;;;2.60;;
38725;SDS011;24474;48.906;8.808;2022-09-27T03:57:12;6.57;;;2.50;;
38725;SDS011;24474;48.906;8.808;2022-09-27T03:59:38;12.27;;;3.10;;
38725;SDS011;24474;48.906;8.808;2022-09-27T04:02:03;9.15;;;3.05;;
38725;SDS011;24474;48.906;8.808;2022-09-27T04:04:29;8.90;;;2.88;;
38725;SDS011;24474;48.906;8.808;2022-09-27T04:06:55;12.30;;;3.45;;
38725;SDS011;24474;48.906;8.808;2022-09-27T04:09:22;9.57;;;3.22;;
38725;SDS011;24474;48.906;8.808;2022-09-27T04:11:47;11.02;;;2.92;;
38725;SDS011;24474;48.906;8.808;2022-09-27T04:14:13;9.27;;;3.13;;
38725;SDS011;24474;48.906;8.808;2022-09-27T04:16:39;13.38;;;2.97;;
38725;SDS011;24474;48.906;8.808;2022-09-27T04:19:05;8.13;;;2.53;;
38725;SDS011;24474;48.906;8.808;2022-09-27T04:21:31;9.60;;;2.72;;
38725;SDS011;24474;48.906;8.808;2022-09-27T04:23:58;7.88;;;2.33;;
38725;SDS011;24474;48.906;8.808;2022-09-27T04:26:24;10.18;;;3.00;;
38725;SDS011;24474;48.906;8.808;2022-09-27T04:28:50;11.07;;;3.10;;
38725;SDS011;24474;48.906;8.808;2022-09-27T04:31:16;8.10;;;2.83;;
38725;SDS011;24474;48.906;8.808;2022-09-27T04:33:42;10.07;;;2.58;;
38725;SDS011;24474;48.906;8.808;2022-09-27T04:36:10;5.72;;;2.13;;
38725;SDS011;24474;48.906;8.808;2022-09-27T04:38:54;6.05;;;2.20;;
38725;SDS011;24474;48.906;8.808;2022-09-27T04:41:22;7.07;;;2.20;;
38725;SDS011;24474;48.906;8.808;2022-09-27T04:43:50;4.95;;;2.20;;
38725;SDS011;24474;48.906;8.808;2022-09-27T04:46:16;8.02;;;2.20;;
38725;SDS011;24474;48.906;8.808;2022-09-27T04:48:42;7.60;;;1.95;;
38725;SDS011;24474;48.906;8.808;2022-09-27T04:51:08;5.20;;;2.10;;
38725;SDS011;24474;48.906;8.808;2022-09-27T04:53:34;8.63;;;2.00;;
38725;SDS011;24474;48.906;8.808;2022-09-27T04:56:00;4.70;;;1.80;;
38725;SDS011;24474;48.906;8.808;2022-09-27T04:58:30;4.82;;;1.80;;
38725;SDS011;24474;48.906;8.808;2022-09-27T05:00:57;5.85;;;1.90;;
38725;SDS011;24474;48.906;8.808;2022-09-27T05:03:23;6.75;;;1.80;;
38725;SDS011;24474;48.906;8.808;2022-09-27T05:05:49;5.90;;;1.95;;
38725;SDS011;24474;48.906;8.808;2022-09-27T05:08:14;5.22;;;1.90;;
38725;SDS011;24474;48.906;8.808;2022-09-27T05:10:40;5.35;;;1.98;;
38725;SDS011;24474;48.906;8.808;2022-09-27T05:13:06;6.05;;;2.20;;
38725;SDS011;24474;48.906;8.808;2022-09-27T05:15:31;6.93;;;2.20;;
38725;SDS011;24474;48.906;8.808;2022-09-27T05:17:58;4.68;;;2.00;;
38725;SDS011;24474;48.906;8.808;2022-09-27T05:20:24;5.95;;;2.20;;
38725;SDS011;24474;48.906;8.808;2022-09-27T05:22:50;5.22;;;1.98;;
38725;SDS011;24474;48.906;8.808;2022-09-27T05:25:16;5.72;;;2.40;;
38725;SDS011;24474;48.906;8.808;2022-09-27T05:27:43;4.93;;;2.53;;
38725;SDS011;24474;48.906;8.808;2022-09-27T05:30:12;4.78;;;1.90;;
38725;SDS011;24474;48.906;8.808;2022-09-27T05:32:38;4.97;;;1.90;;
38725;SDS011;24474;48.906;8.808;2022-09-27T05:35:08;6.05;;;2.00;;
38725;SDS011;24474;48.906;8.808;2022-09-27T05:37:34;7.63;;;2.55;;
38725;SDS011;24474;48.906;8.808;2022-09-27T05:40:00;7.28;;;2.20;;
38725;SDS011;24474;48.906;8.808;2022-09-27T05:42:26;5.47;;;1.98;;
38725;SDS011;24474;48.906;8.808;2022-09-27T05:44:52;5.28;;;2.17;;
38725;SDS011;24474;48.906;8.808;2022-09-27T05:47:17;4.32;;;1.90;;
38725;SDS011;24474;48.906;8.808;2022-09-27T05:49:43;3.97;;;1.85;;
38725;SDS011;24474;48.906;8.808;2022-09-27T05:52:08;4.88;;;1.77;;
38725;SDS011;24474;48.906;8.808;2022-09-27T05:54:35;6.00;;;2.15;;
38725;SDS011;24474;48.906;8.808;2022-09-27T05:57:00;5.47;;;2.00;;
38725;SDS011;24474;48.906;8.808;2022-09-27T05:59:26;7.30;;;2.05;;
38725;SDS011;24474;48.906;8.808;2022-09-27T06:01:52;5.97;;;2.05;;
38725;SDS011;24474;48.906;8.808;2022-09-27T06:04:19;3.65;;;1.80;;
38725;SDS011;24474;48.906;8.808;2022-09-27T06:06:45;4.60;;;1.77;;
38725;SDS011;24474;48.906;8.808;2022-09-27T06:09:11;3.75;;;1.58;;
38725;SDS011;24474;48.906;8.808;2022-09-27T06:11:38;4.43;;;1.98;;
38725;SDS011;24474;48.906;8.808;2022-09-27T06:14:05;3.80;;;1.42;;
38725;SDS011;24474;48.906;8.808;2022-09-27T06:16:30;4.22;;;1.60;;
38725;SDS011;24474;48.906;8.808;2022-09-27T06:18:56;2.92;;;1.60;;
38725;SDS011;24474;48.906;8.808;2022-09-27T06:21:22;2.33;;;1.33;;
38725;SDS011;24474;48.906;8.808;2022-09-27T06:23:48;5.53;;;1.40;;
38725;SDS011;24474;48.906;8.808;2022-09-27T06:26:14;4.10;;;1.67;;
38725;SDS011;24474;48.906;8.808;2022-09-27T06:28:41;3.35;;;1.20;;
38725;SDS011;24474;48.906;8.808;2022-09-27T06:31:10;2.83;;;1.20;;
38725;SDS011;24474;48.906;8.808;2022-09-27T06:33:37;2.55;;;1.00;;
38725;SDS011;24474;48.906;8.808;2022-09-27T06:36:03;2.58;;;1.35;;
38725;SDS011;24474;48.906;8.808;2022-09-27T06:38:30;1.38;;;1.00;;
38725;SDS011;24474;48.906;8.808;2022-09-27T06:40:59;3.20;;;1.17;;
38725;SDS011;24474;48.906;8.808;2022-09-27T06:43:26;2.17;;;0.90;;
38725;SDS011;24474;48.906;8.808;2022-09-27T06:45:51;1.48;;;0.60;;
38725;SDS011;24474;48.906;8.808;2022-09-27T06:48:17;1.20;;;0.80;;
38725;SDS011;24474;48.906;8.808;2022-09-27T06:50:44;1.65;;;0.80;;
38725;SDS011;24474;48.906;8.808;2022-09-27T06:53:12;2.03;;;1.00;;
38725;SDS011;24474;48.906;8.808;2022-09-27T06:55:39;2.65;;;0.80;;
38725;SDS011;24474;48.906;8.808;2022-09-27T06:58:05;1.80;;;0.90;;
38725;SDS011;24474;48.906;8.808;2022-09-27T07:00:50;2.17;;;0.90;;
38725;SDS011;24474;48.906;8.808;2022-09-27T07:03:17;1.27;;;1.00;;
38725;SDS011;24474;48.906;8.808;2022-09-27T07:05:54;2.20;;;1.00;;
38725;SDS011;24474;48.906;8.808;2022-09-27T07:08:21;1.80;;;0.95;;
38725;SDS011;24474;48.906;8.808;2022-09-27T07:10:47;2.72;;;1.17;;
38725;SDS011;24474;48.906;8.808;2022-09-27T07:13:13;2.17;;;1.38;;
38725;SDS011;24474;48.906;8.808;2022-09-27T07:15:40;2.25;;;1.15;;
38725;SDS011;24474;48.906;8.808;2022-09-27T07:18:06;2.00;;;1.30;;
38725;SDS011;24474;48.906;8.808;2022-09-27T07:20:32;2.70;;;1.20;;
38725;SDS011;24474;48.906;8.808;2022-09-27T07:23:02;4.60;;;1.80;;
38725;SDS011;24474;48.906;8.808;2022-09-27T07:25:32;7.20;;;3.97;;
38725;SDS011;24474;48.906;8.808;2022-09-27T07:28:02;1.67;;;1.35;;
38725;SDS011;24474;48.906;8.808;2022-09-27T07:30:30;1.85;;;1.23;;
38725;SDS011;24474;48.906;8.808;2022-09-27T07:32:56;3.05;;;1.70;;
38725;SDS011;24474;48.906;8.808;2022-09-27T07:35:23;2.30;;;1.40;;
38725;SDS011;24474;48.906;8.808;2022-09-27T07:37:49;1.95;;;1.33;;
38725;SDS011;24474;48.906;8.808;2022-09-27T07:40:16;3.58;;;1.38;;
38725;SDS011;24474;48.906;8.808;2022-09-27T07:42:42;2.35;;;1.45;;
38725;SDS011;24474;48.906;8.808;2022-09-27T07:45:08;2.58;;;1.30;;
38725;SDS011;24474;48.906;8.808;2022-09-27T07:47:36;4.72;;;1.42;;
38725;SDS011;24474;48.906;8.808;2022-09-27T07:50:03;3.30;;;1.35;;
38725;SDS011;24474;48.906;8.808;2022-09-27T07:52:40;3.85;;;1.25;;
38725;SDS011;24474;48.906;8.808;2022-09-27T07:55:08;3.47;;;1.10;;
38725;SDS011;24474;48.906;8.808;2022-09-27T07:57:34;2.85;;;1.17;;
38725;SDS011;24474;48.906;8.808;2022-09-27T08:00:01;2.20;;;1.13;;
38725;SDS011;24474;48.906;8.808;2022-09-27T08:02:31;1.10;;;0.93;;
38725;SDS011;24474;48.906;8.808;2022-09-27T08:04:57;1.70;;;1.10;;
38725;SDS011;24474;48.906;8.808;2022-09-27T08:07:23;3.78;;;1.25;;
38725;SDS011;24474;48.906;8.808;2022-09-27T08:09:49;3.75;;;1.20;;
38725;SDS011;24474;48.906;8.808;2022-09-27T08:12:15;2.53;;;1.23;;
38725;SDS011;24474;48.906;8.808;2022-09-27T08:14:41;2.28;;;1.30;;
38725;SDS011;24474;48.906;8.808;2022-09-27T08:17:09;3.35;;;1.30;;
38725;SDS011;24474;48.906;8.808;2022-09-27T08:19:35;3.95;;;1.40;;
38725;SDS011;24474;48.906;8.808;2022-09-27T08:22:00;6.57;;;1.70;;
38725;SDS011;24474;48.906;8.808;2022-09-27T08:24:26;3.78;;;1.83;;
38725;SDS011;24474;48.906;8.808;2022-09-27T08:26:53;2.85;;;1.50;;
38725;SDS011;24474;48.906;8.808;2022-09-27T08:29:18;6.47;;;1.95;;
38725;SDS011;24474;48.906;8.808;2022-09-27T08:31:44;6.00;;;2.10;;
38725;SDS011;24474;48.906;8.808;2022-09-27T08:34:10;3.60;;;1.90;;
38725;SDS011;24474;48.906;8.808;2022-09-27T08:36:36;3.72;;;1.90;;
38725;SDS011;24474;48.906;8.808;2022-09-27T08:39:02;4.82;;;1.85;;
38725;SDS011;24474;48.906;8.808;2022-09-27T08:52:55;3.83;;;1.95;;
38725;SDS011;24474;48.906;8.808;2022-09-27T09:00:43;4.97;;;2.00;;
38725;SDS011;24474;48.906;8.808;2022-09-27T09:03:15;4.45;;;1.83;;
38725;SDS011;24474;48.906;8.808;2022-09-27T09:05:46;3.80;;;1.52;;
38725;SDS011;24474;48.906;8.808;2022-09-27T09:17:25;3.80;;;1.85;;
38725;SDS011;24474;48.906;8.808;2022-09-27T09:33:51;3.58;;;1.70;;
38725;SDS011;24474;48.906;8.808;2022-09-27T09:36:28;5.60;;;2.10;;
38725;SDS011;24474;48.906;8.808;2022-09-27T09:47:37;3.80;;;1.52;;
38725;SDS011;24474;48.906;8.808;2022-09-27T09:50:22;3.35;;;1.33;;
38725;SDS011;24474;48.906;8.808;2022-09-27T09:53:13;4.75;;;1.30;;
38725;SDS011;24474;48.906;8.808;2022-09-27T09:55:47;5.75;;;1.63;;
38725;SDS011;24474;48.906;8.808;2022-09-27T09:58:52;6.70;;;1.42;;
38725;SDS011;24474;48.906;8.808;2022-09-27T10:01:41;6.97;;;1.67;;
38725;SDS011;24474;48.906;8.808;2022-09-27T10:04:09;6.28;;;1.70;;
38725;SDS011;24474;48.906;8.808;2022-09-27T10:06:44;5.45;;;1.45;;
38725;SDS011;24474;48.906;8.808;2022-09-27T10:09:11;3.25;;;1.40;;
38725;SDS011;24474;48.906;8.808;2022-09-27T10:11:39;6.32;;;1.50;;
38725;SDS011;24474;48.906;8.808;2022-09-27T10:14:09;4.72;;;1.70;;
38725;SDS011;24474;48.906;8.808;2022-09-27T10:16:36;8.07;;;1.67;;
38725;SDS011;24474;48.906;8.808;2022-09-27T10:19:06;5.55;;;1.55;;
38725;SDS011;24474;48.906;8.808;2022-09-27T10:21:33;4.97;;;1.60;;
38725;SDS011;24474;48.906;8.808;2022-09-27T10:24:16;4.80;;;1.55;;
38725;SDS011;24474;48.906;8.808;2022-09-27T10:26:44;3.03;;;1.40;;
38725;SDS011;24474;48.906;8.808;2022-09-27T10:31:45;4.20;;;1.70;;
38725;SDS011;24474;48.906;8.808;2022-09-27T10:34:54;4.28;;;1.25;;
38725;SDS011;24474;48.906;8.808;2022-09-27T10:39:38;4.13;;;1.25;;
38725;SDS011;24474;48.906;8.808;2022-09-27T10:44:48;2.88;;;1.15;;
38725;SDS011;24474;48.906;8.808;2022-09-27T10:47:17;2.95;;;1.30;;
38725;SDS011;24474;48.906;8.808;2022-09-27T10:49:46;4.18;;;1.40;;
38725;SDS011;24474;48.906;8.808;2022-09-27T10:52:17;3.53;;;1.50;;
38725;SDS011;24474;48.906;8.808;2022-09-27T10:54:53;4.65;;;1.77;;
38725;SDS011;24474;48.906;8.808;2022-09-27T10:57:58;4.63;;;1.70;;
38725;SDS011;24474;48.906;8.808;2022-09-27T11:00:24;5.55;;;1.73;;
38725;SDS011;24474;48.906;8.808;2022-09-27T11:02:59;4.75;;;1.60;;
38725;SDS011;24474;48.906;8.808;2022-09-27T11:05:32;7.53;;;2.28;;
38725;SDS011;24474;48.906;8.808;2022-09-27T11:08:01;3.28;;;1.75;;
38725;SDS011;24474;48.906;8.808;2022-09-27T11:10:44;4.63;;;2.13;;
38725;SDS011;24474;48.906;8.808;2022-09-27T11:13:29;4.95;;;1.63;;
38725;SDS011;24474;48.906;8.808;2022-09-27T11:24:26;2.25;;;0.70;;
38725;SDS011;24474;48.906;8.808;2022-09-27T11:30:10;3.30;;;1.20;;
38725;SDS011;24474;48.906;8.808;2022-09-27T11:35:54;2.60;;;0.90;;
38725;SDS011;24474;48.906;8.808;2022-09-27T11:57:37;1.90;;;0.70;;
38725;SDS011;24474;48.906;8.808;2022-09-27T12:00:17;1.45;;;0.52;;
38725;SDS011;24474;48.906;8.808;2022-09-27T12:08:31;5.93;;;3.60;;
38725;SDS011;24474;48.906;8.808;2022-09-27T12:13:54;1.40;;;0.90;;
38725;SDS011;24474;48.906;8.808;2022-09-27T12:16:51;2.17;;;1.20;;
38725;SDS011;24474;48.906;8.808;2022-09-27T12:19:23;2.25;;;0.77;;
38725;SDS011;24474;48.906;8.808;2022-09-27T12:21:56;1.60;;;0.80;;
38725;SDS011;24474;48.906;8.808;2022-09-27T12:24:26;1.00;;;0.80;;
38725;SDS011;24474;48.906;8.808;2022-09-27T12:26:53;3.08;;;0.77;;
38725;SDS011;24474;48.906;8.808;2022-09-27T12:32:14;2.60;;;0.90;;
38725;SDS011;24474;48.906;8.808;2022-09-27T12:37:14;2.53;;;1.10;;
38725;SDS011;24474;48.906;8.808;2022-09-27T12:39:47;1.55;;;0.90;;
38725;SDS011;24474;48.906;8.808;2022-09-27T12:45:18;3.50;;;1.20;;
38725;SDS011;24474;48.906;8.808;2022-09-27T12:53:47;1.58;;;0.95;;
38725;SDS011;24474;48.906;8.808;2022-09-27T13:12:32;3.28;;;1.27;;
38725;SDS011;24474;48.906;8.808;2022-09-27T13:25:54;3.25;;;1.67;;
38725;SDS011;24474;48.906;8.808;2022-09-27T13:30:57;2.42;;;1.40;;
38725;SDS011;24474;48.906;8.808;2022-09-27T13:44:19;3.35;;;1.70;;
38725;SDS011;24474;48.906;8.808;2022-09-27T13:49:30;4.75;;;3.15;;
38725;SDS011;24474;48.906;8.808;2022-09-27T13:52:44;7.00;;;5.00;;
38725;SDS011;24474;48.906;8.808;2022-09-27T13:54:55;3.65;;;2.08;;
38725;SDS011;24474;48.906;8.808;2022-09-27T14:00:11;6.13;;;3.20;;
38725;SDS011;24474;48.906;8.808;2022-09-27T14:05:49;2.92;;;2.15;;
38725;SDS011;24474;48.906;8.808;2022-09-27T14:08:35;3.55;;;2.00;;
38725;SDS011;24474;48.906;8.808;2022-09-27T14:11:29;4.32;;;3.90;;
38725;SDS011;24474;48.906;8.808;2022-09-27T14:13:58;3.80;;;1.75;;
38725;SDS011;24474;48.906;8.808;2022-09-27T14:16:31;3.65;;;1.88;;
38725;SDS011;24474;48.906;8.808;2022-09-27T14:18:59;3.03;;;1.70;;
38725;SDS011;24474;48.906;8.808;2022-09-27T14:21:36;2.85;;;1.67;;
38725;SDS011;24474;48.906;8.808;2022-09-27T14:26:50;5.07;;;3.50;;
38725;SDS011;24474;48.906;8.808;2022-09-27T14:29:48;4.72;;;3.90;;
38725;SDS011;24474;48.906;8.808;2022-09-27T14:32:17;4.93;;;3.40;;
38725;SDS011;24474;48.906;8.808;2022-09-27T14:37:53;2.35;;;1.20;;
38725;SDS011;24474;48.906;8.808;2022-09-27T14:40:23;2.75;;;1.35;;
38725;SDS011;24474;48.906;8.808;2022-09-27T14:42:52;3.92;;;1.65;;
38725;SDS011;24474;48.906;8.808;2022-09-27T14:45:33;2.10;;;1.23;;
38725;SDS011;24474;48.906;8.808;2022-09-27T14:48:01;2.70;;;1.73;;
38725;SDS011;24474;48.906;8.808;2022-09-27T14:53:21;7.63;;;2.70;;
38725;SDS011;24474;48.906;8.808;2022-09-27T14:55:48;4.22;;;2.53;;
38725;SDS011;24474;48.906;8.808;2022-09-27T14:58:17;2.78;;;1.50;;
38725;SDS011;24474;48.906;8.808;2022-09-27T15:00:44;3.25;;;1.70;;
38725;SDS011;24474;48.906;8.808;2022-09-27T15:03:12;2.08;;;1.42;;
38725;SDS011;24474;48.906;8.808;2022-09-27T15:05:57;1.95;;;1.20;;
38725;SDS011;24474;48.906;8.808;2022-09-27T15:10:54;1.42;;;1.10;;
38725;SDS011;24474;48.906;8.808;2022-09-27T15:13:21;2.65;;;1.08;;
38725;SDS011;24474;48.906;8.808;2022-09-27T15:15:48;2.97;;;1.15;;
38725;SDS011;24474;48.906;8.808;2022-09-27T15:21:02;6.10;;;2.40;;
38725;SDS011;24474;48.906;8.808;2022-09-27T15:23:29;2.20;;;1.20;;
38725;SDS011;24474;48.906;8.808;2022-09-27T15:28:49;6.93;;;1.17;;
38725;SDS011;24474;48.906;8.808;2022-09-27T15:31:28;4.68;;;0.93;;
38725;SDS011;24474;48.906;8.808;2022-09-27T15:33:59;2.90;;;1.13;;
38725;SDS011;24474;48.906;8.808;2022-09-27T15:37:26;2.65;;;1.30;;
38725;SDS011;24474;48.906;8.808;2022-09-27T15:39:31;2.88;;;1.40;;
38725;SDS011;24474;48.906;8.808;2022-09-27T15:42:11;5.22;;;1.77;;
38725;SDS011;24474;48.906;8.808;2022-09-27T15:44:48;3.17;;;1.45;;
38725;SDS011;24474;48.906;8.808;2022-09-27T15:49:56;5.22;;;2.97;;
38725;SDS011;24474;48.906;8.808;2022-09-27T15:52:38;4.50;;;1.95;;
38725;SDS011;24474;48.906;8.808;2022-09-27T15:55:11;7.75;;;4.13;;
38725;SDS011;24474;48.906;8.808;2022-09-27T15:57:42;4.53;;;1.98;;
38725;SDS011;24474;48.906;8.808;2022-09-27T16:00:11;6.13;;;2.33;;
38725;SDS011;24474;48.906;8.808;2022-09-27T16:02:41;4.55;;;1.77;;
38725;SDS011;24474;48.906;8.808;2022-09-27T16:05:09;4.65;;;1.52;;
38725;SDS011;24474;48.906;8.808;2022-09-27T16:07:38;6.70;;;3.90;;
38725;SDS011;24474;48.906;8.808;2022-09-27T16:10:23;6.13;;;3.40;;
38725;SDS011;24474;48.906;8.808;2022-09-27T16:12:53;4.60;;;1.95;;
38725;SDS011;24474;48.906;8.808;2022-09-27T16:15:19;5.93;;;1.63;;
38725;SDS011;24474;48.906;8.808;2022-09-27T16:17:45;3.65;;;1.70;;
38725;SDS011;24474;48.906;8.808;2022-09-27T16:20:16;3.50;;;1.50;;
38725;SDS011;24474;48.906;8.808;2022-09-27T16:23:04;3.88;;;1.33;;
38725;SDS011;24474;48.906;8.808;2022-09-27T16:25:30;4.03;;;1.58;;
38725;SDS011;24474;48.906;8.808;2022-09-27T16:27:58;2.88;;;1.00;;
38725;SDS011;24474;48.906;8.808;2022-09-27T16:30:26;3.00;;;1.40;;
38725;SDS011;24474;48.906;8.808;2022-09-27T16:32:54;5.05;;;1.50;;
38725;SDS011;24474;48.906;8.808;2022-09-27T16:35:20;4.05;;;1.58;;
38725;SDS011;24474;48.906;8.808;2022-09-27T16:37:48;3.33;;;2.00;;
38725;SDS011;24474;48.906;8.808;2022-09-27T16:40:16;11.05;;;4.32;;
38725;SDS011;24474;48.906;8.808;2022-09-27T16:42:45;4.55;;;2.00;;
38725;SDS011;24474;48.906;8.808;2022-09-27T16:45:13;5.03;;;1.33;;
38725;SDS011;24474;48.906;8.808;2022-09-27T16:47:46;3.20;;;1.30;;
38725;SDS011;24474;48.906;8.808;2022-09-27T16:50:13;3.42;;;1.40;;
38725;SDS011;24474;48.906;8.808;2022-09-27T16:52:59;3.47;;;1.25;;
38725;SDS011;24474;48.906;8.808;2022-09-27T16:55:26;2.13;;;1.20;;
38725;SDS011;24474;48.906;8.808;2022-09-27T16:57:57;3.25;;;1.17;;
38725;SDS011;24474;48.906;8.808;2022-09-27T17:00:32;3.83;;;1.60;;
38725;SDS011;24474;48.906;8.808;2022-09-27T17:03:00;4.63;;;2.00;;
38725;SDS011;24474;48.906;8.808;2022-09-27T17:05:27;4.03;;;1.52;;
38725;SDS011;24474;48.906;8.808;2022-09-27T17:07:53;4.35;;;1.23;;
38725;SDS011;24474;48.906;8.808;2022-09-27T17:10:19;2.65;;;1.30;;
38725;SDS011;24474;48.906;8.808;2022-09-27T17:12:47;4.03;;;1.38;;
38725;SDS011;24474;48.906;8.808;2022-09-27T17:15:14;4.65;;;1.33;;
38725;SDS011;24474;48.906;8.808;2022-09-27T17:17:40;5.40;;;1.67;;
38725;SDS011;24474;48.906;8.808;2022-09-27T17:20:10;4.38;;;1.52;;
38725;SDS011;24474;48.906;8.808;2022-09-27T17:22:36;3.67;;;1.83;;
38725;SDS011;24474;48.906;8.808;2022-09-27T17:25:01;3.50;;;1.60;;
38725;SDS011;24474;48.906;8.808;2022-09-27T17:27:28;3.25;;;1.58;;
38725;SDS011;24474;48.906;8.808;2022-09-27T17:29:54;4.97;;;2.40;;
38725;SDS011;24474;48.906;8.808;2022-09-27T17:32:21;4.80;;;2.22;;
38725;SDS011;24474;48.906;8.808;2022-09-27T17:34:51;5.43;;;2.45;;
38725;SDS011;24474;48.906;8.808;2022-09-27T17:37:24;5.78;;;2.10;;
38725;SDS011;24474;48.906;8.808;2022-09-27T17:39:52;6.28;;;2.72;;
38725;SDS011;24474;48.906;8.808;2022-09-27T17:42:18;3.78;;;2.50;;
38725;SDS011;24474;48.906;8.808;2022-09-27T17:44:43;5.57;;;2.40;;
38725;SDS011;24474;48.906;8.808;2022-09-27T17:47:12;4.97;;;2.10;;
38725;SDS011;24474;48.906;8.808;2022-09-27T17:49:56;3.33;;;1.95;;
38725;SDS011;24474;48.906;8.808;2022-09-27T17:52:52;4.97;;;2.85;;
38725;SDS011;24474;48.906;8.808;2022-09-27T17:55:24;4.70;;;2.53;;
38725;SDS011;24474;48.906;8.808;2022-09-27T17:57:50;5.18;;;2.60;;
38725;SDS011;24474;48.906;8.808;2022-09-27T18:00:19;7.00;;;4.35;;
38725;SDS011;24474;48.906;8.808;2022-09-27T18:02:46;4.63;;;2.35;;
38725;SDS011;24474;48.906;8.808;2022-09-27T18:05:16;7.18;;;4.57;;
38725;SDS011;24474;48.906;8.808;2022-09-27T18:07:45;5.10;;;2.88;;
38725;SDS011;24474;48.906;8.808;2022-09-27T18:10:12;5.55;;;2.83;;
38725;SDS011;24474;48.906;8.808;2022-09-27T18:12:39;2.88;;;1.30;;
38725;SDS011;24474;48.906;8.808;2022-09-27T18:15:08;4.45;;;1.88;;
38725;SDS011;24474;48.906;8.808;2022-09-27T18:17:34;3.50;;;2.20;;
38725;SDS011;24474;48.906;8.808;2022-09-27T18:20:03;3.42;;;1.90;;
38725;SDS011;24474;48.906;8.808;2022-09-27T18:22:29;2.17;;;1.63;;
38725;SDS011;24474;48.906;8.808;2022-09-27T18:24:56;3.97;;;1.50;;
38725;SDS011;24474;48.906;8.808;2022-09-27T18:27:22;3.40;;;1.48;;
38725;SDS011;24474;48.906;8.808;2022-09-27T18:29:48;6.35;;;1.48;;
38725;SDS011;24474;48.906;8.808;2022-09-27T18:32:16;4.43;;;1.55;;
38725;SDS011;24474;48.906;8.808;2022-09-27T18:34:43;4.50;;;1.30;;
38725;SDS011;24474;48.906;8.808;2022-09-27T18:37:08;3.55;;;1.20;;
38725;SDS011;24474;48.906;8.808;2022-09-27T18:39:35;2.97;;;1.50;;
38725;SDS011;24474;48.906;8.808;2022-09-27T18:42:01;3.75;;;1.83;;
38725;SDS011;24474;48.906;8.808;2022-09-27T18:44:28;3.67;;;1.80;;
38725;SDS011;24474;48.906;8.808;2022-09-27T18:46:59;2.92;;;1.50;;
38725;SDS011;24474;48.906;8.808;2022-09-27T18:49:25;2.80;;;1.40;;
38725;SDS011;24474;48.906;8.808;2022-09-27T18:51:52;3.15;;;1.50;;